Time;durP1;ratioP1;P1;durP2;ratioP2;P2;SDS_P1;SDS_P2;PMS_P1;PMS_P2;Temp;Humidity;BMP_temperature;BMP_pressure;BME280_temperature;BME280_humidity;BME280_pressure;Samples;Min_cycle;Max_cycle;Signal;HPM_P1;HPM_P2
2023/08/26 00:01:51;;;;;;;3.25;2.78;;;;;;;;;;5044092;28;20075;-81
2023/08/26 00:04:16;;;;;;;2.63;2.22;;;;;;;;;;5051339;28;20025;-82
2023/08/26 00:06:42;;;;;;;4.07;2.85;;;;;;;;;;5064828;28;20021;-83
2023/08/26 00:09:07;;;;;;;3.78;3.10;;;;;;;;;;5061818;28;20017;-83
2023/08/26 00:11:33;;;;;;;4.65;2.55;;;;;;;;;;5062211;28;20031;-81
2023/08/26 00:13:58;;;;;;;4.32;2.58;;;;;;;;;;5062703;28;20028;-82
2023/08/26 00:16:24;;;;;;;5.25;3.22;;;;;;;;;;5062498;28;20036;-83
2023/08/26 00:18:49;;;;;;;8.25;3.15;;;;;;;;;;5062160;28;20021;-83
2023/08/26 00:21:17;;;;;;;6.82;2.85;;;;;;;;;;5062193;28;20021;-83
2023/08/26 00:23:42;;;;;;;3.95;2.90;;;;;;;;;;5061899;28;20408;-83
2023/08/26 00:26:11;;;;;;;4.68;3.30;;;;;;;;;;5062315;28;20028;-84
2023/08/26 00:28:36;;;;;;;3.28;2.80;;;;;;;;;;5060403;28;20476;-83
2023/08/26 00:31:02;;;;;;;4.53;3.35;;;;;;;;;;5058387;28;20036;-82
2023/08/26 00:33:27;;;;;;;3.50;2.67;;;;;;;;;;5070206;28;20124;-83
2023/08/26 00:35:53;;;;;;;4.15;2.60;;;;;;;;;;5061375;28;20029;-83
2023/08/26 00:38:18;;;;;;;4.18;2.80;;;;;;;;;;5061401;28;20028;-83
2023/08/26 00:40:44;;;;;;;5.72;2.80;;;;;;;;;;5042841;28;20118;-83
2023/08/26 00:43:09;;;;;;;3.05;2.75;;;;;;;;;;5043724;28;20052;-82
2023/08/26 00:45:42;;;;;;;3.25;2.67;;;;;;;;;;5043517;28;20020;-82
2023/08/26 00:48:11;;;;;;;3.60;2.70;;;;;;;;;;5044850;28;20017;-83
2023/08/26 00:50:38;;;;;;;5.05;2.55;;;;;;;;;;5061883;28;20312;-83
2023/08/26 00:53:04;;;;;;;3.75;2.80;;;;;;;;;;5061496;28;20017;-83
2023/08/26 00:55:30;;;;;;;4.18;2.67;;;;;;;;;;5061721;28;20027;-83
2023/08/26 00:57:56;;;;;;;3.83;2.55;;;;;;;;;;5041934;28;20469;-82
2023/08/26 01:00:22;;;;;;;4.05;2.95;;;;;;;;;;5039534;28;20032;-84
2023/08/26 01:02:47;;;;;;;3.72;2.60;;;;;;;;;;5042968;28;20118;-83
2023/08/26 01:05:13;;;;;;;3.20;2.50;;;;;;;;;;5061704;28;20532;-82
2023/08/26 01:07:39;;;;;;;4.47;2.55;;;;;;;;;;5043253;28;20020;-85
2023/08/26 01:10:05;;;;;;;6.65;2.75;;;;;;;;;;5039496;28;20035;-85
2023/08/26 01:12:54;;;;;;;3.60;2.70;;;;;;;;;;5056424;28;20025;-85
2023/08/26 01:15:20;;;;;;;6.93;2.88;;;;;;;;;;5037774;28;20488;-85
2023/08/26 01:17:45;;;;;;;5.60;3.08;;;;;;;;;;5055562;28;20060;-85
2023/08/26 01:20:13;;;;;;;4.75;3.20;;;;;;;;;;5038517;28;20016;-85
2023/08/26 01:22:41;;;;;;;4.38;2.30;;;;;;;;;;5037800;28;20081;-84
2023/08/26 01:25:07;;;;;;;4.18;2.70;;;;;;;;;;5039017;28;20029;-83
2023/08/26 01:27:32;;;;;;;3.42;2.63;;;;;;;;;;5038433;28;20480;-84
2023/08/26 01:29:58;;;;;;;4.47;2.65;;;;;;;;;;5057020;28;20463;-83
2023/08/26 01:32:33;;;;;;;3.05;2.38;;;;;;;;;;5053809;28;20029;-82
2023/08/26 01:35:02;;;;;;;2.85;2.53;;;;;;;;;;5052859;28;20048;-82
2023/08/26 01:37:28;;;;;;;5.00;2.78;;;;;;;;;;5064873;28;20063;-84
2023/08/26 01:39:57;;;;;;;5.15;2.33;;;;;;;;;;5043516;28;20021;-83
2023/08/26 01:42:24;;;;;;;3.80;2.53;;;;;;;;;;5070227;28;20017;-84
2023/08/26 01:44:50;;;;;;;7.07;2.35;;;;;;;;;;5073159;28;20025;-84
2023/08/26 01:47:16;;;;;;;3.70;2.28;;;;;;;;;;5049066;28;20049;-84
2023/08/26 01:54:48;;;;;;;3.80;2.13;;;;;;;;;;5067504;28;20045;-81
2023/08/26 01:57:14;;;;;;;6.00;2.70;;;;;;;;;;5048838;28;20059;-81
2023/08/26 01:59:39;;;;;;;3.40;2.05;;;;;;;;;;5055432;28;20017;-80
2023/08/26 02:02:05;;;;;;;2.95;2.30;;;;;;;;;;5064283;28;20081;-80
2023/08/26 02:04:30;;;;;;;3.22;2.33;;;;;;;;;;5064546;28;20086;-80
2023/08/26 02:06:55;;;;;;;3.45;2.17;;;;;;;;;;5060853;28;20041;-82
2023/08/26 02:09:20;;;;;;;2.63;2.20;;;;;;;;;;5064753;28;20076;-80
2023/08/26 02:11:46;;;;;;;2.97;2.35;;;;;;;;;;5076714;28;20080;-80
2023/08/26 02:14:11;;;;;;;1.98;1.88;;;;;;;;;;5046978;28;20499;-80
2023/08/26 02:16:37;;;;;;;2.78;2.13;;;;;;;;;;5038748;28;20025;-82
2023/08/26 02:19:02;;;;;;;3.17;2.20;;;;;;;;;;5056018;28;20024;-82
2023/08/26 02:21:27;;;;;;;1.92;1.83;;;;;;;;;;5065640;28;20032;-81
2023/08/26 02:23:52;;;;;;;2.35;2.08;;;;;;;;;;5049395;28;20077;-80
2023/08/26 02:26:18;;;;;;;4.15;2.28;;;;;;;;;;5063679;28;20158;-81
2023/08/26 02:28:43;;;;;;;2.95;2.30;;;;;;;;;;5055942;28;20017;-81
2023/08/26 02:31:08;;;;;;;4.07;2.15;;;;;;;;;;5055939;28;20056;-80
2023/08/26 02:33:34;;;;;;;3.30;2.25;;;;;;;;;;5038255;28;20394;-79
2023/08/26 02:35:59;;;;;;;2.97;2.30;;;;;;;;;;5038154;28;20033;-80
2023/08/26 02:38:25;;;;;;;3.28;2.30;;;;;;;;;;5056685;28;20048;-81
2023/08/26 02:40:54;;;;;;;2.08;1.95;;;;;;;;;;5057713;28;20029;-81
2023/08/26 02:43:20;;;;;;;2.17;1.90;;;;;;;;;;5057454;28;20383;-80
2023/08/26 02:45:46;;;;;;;2.38;1.83;;;;;;;;;;5058196;28;20028;-80
2023/08/26 02:48:11;;;;;;;2.50;2.30;;;;;;;;;;5059480;28;20025;-81
2023/08/26 02:50:38;;;;;;;3.88;2.28;;;;;;;;;;5058815;28;20121;-81
2023/08/26 02:53:03;;;;;;;2.28;2.05;;;;;;;;;;5058670;28;20088;-79
2023/08/26 02:55:29;;;;;;;3.00;2.10;;;;;;;;;;5053818;28;20028;-82
2023/08/26 02:57:54;;;;;;;3.67;2.38;;;;;;;;;;5067230;28;20483;-81
2023/08/26 03:00:19;;;;;;;2.65;2.28;;;;;;;;;;5065234;28;20025;-81
2023/08/26 03:02:45;;;;;;;3.72;1.92;;;;;;;;;;5052184;28;20032;-82
2023/08/26 03:05:10;;;;;;;2.90;2.30;;;;;;;;;;5074860;28;20528;-81
2023/08/26 03:07:35;;;;;;;4.57;2.50;;;;;;;;;;5063908;28;20021;-81
2023/08/26 03:10:01;;;;;;;3.55;2.42;;;;;;;;;;5073561;28;20115;-82
2023/08/26 03:12:26;;;;;;;3.28;2.28;;;;;;;;;;5061262;28;20386;-81
2023/08/26 03:14:52;;;;;;;2.58;2.30;;;;;;;;;;5075155;28;20032;-82
2023/08/26 03:17:18;;;;;;;2.65;2.20;;;;;;;;;;5070588;28;20234;-81
2023/08/26 03:19:43;;;;;;;4.00;2.40;;;;;;;;;;5075774;28;20565;-81
2023/08/26 03:22:08;;;;;;;2.40;2.00;;;;;;;;;;5066335;28;20103;-81
2023/08/26 03:24:35;;;;;;;3.38;2.50;;;;;;;;;;5075244;28;20030;-80
2023/08/26 03:27:01;;;;;;;2.38;2.17;;;;;;;;;;5070714;28;20021;-81
2023/08/26 03:29:26;;;;;;;5.75;2.13;;;;;;;;;;5074732;28;20024;-80
2023/08/26 03:31:52;;;;;;;3.47;2.30;;;;;;;;;;5059227;28;20025;-81
2023/08/26 03:34:17;;;;;;;2.80;2.33;;;;;;;;;;5041368;28;20032;-81
2023/08/26 03:36:42;;;;;;;3.22;2.42;;;;;;;;;;5066823;28;20039;-81
2023/08/26 03:39:08;;;;;;;5.75;2.75;;;;;;;;;;5073218;28;20025;-81
2023/08/26 03:41:33;;;;;;;3.63;2.47;;;;;;;;;;5066198;28;20029;-81
2023/08/26 03:43:59;;;;;;;4.65;2.70;;;;;;;;;;5074387;28;20030;-81
2023/08/26 03:46:26;;;;;;;3.28;2.28;;;;;;;;;;5072246;28;20029;-81
2023/08/26 03:48:52;;;;;;;2.47;2.20;;;;;;;;;;5071706;28;20131;-80
2023/08/26 03:51:17;;;;;;;4.88;2.63;;;;;;;;;;5074435;28;20699;-80
2023/08/26 03:53:42;;;;;;;3.05;2.50;;;;;;;;;;5073934;28;20021;-81
2023/08/26 03:56:08;;;;;;;5.07;2.67;;;;;;;;;;5074996;28;20036;-81
2023/08/26 03:58:33;;;;;;;3.92;2.30;;;;;;;;;;5052638;28;20028;-81
2023/08/26 04:01:00;;;;;;;3.05;2.67;;;;;;;;;;5050674;28;20478;-82
2023/08/26 04:03:25;;;;;;;2.40;2.20;;;;;;;;;;5056554;28;20033;-81
2023/08/26 04:06:05;;;;;;;3.58;2.65;;;;;;;;;;5070934;28;20028;-81
2023/08/26 04:08:32;;;;;;;4.43;2.33;;;;;;;;;;5071229;28;20052;-81
2023/08/26 04:10:58;;;;;;;3.42;2.80;;;;;;;;;;5068493;28;20043;-81
2023/08/26 04:13:26;;;;;;;5.50;2.20;;;;;;;;;;5064014;28;20492;-80
2023/08/26 04:16:02;;;;;;;9.50;2.85;;;;;;;;;;5060984;28;20025;-81
2023/08/26 04:18:28;;;;;;;3.85;2.60;;;;;;;;;;5067536;28;20055;-81
2023/08/26 04:20:53;;;;;;;3.45;2.53;;;;;;;;;;5071238;28;20101;-82
2023/08/26 04:23:19;;;;;;;3.65;2.33;;;;;;;;;;5065033;28;20025;-81
2023/08/26 04:25:45;;;;;;;2.55;2.20;;;;;;;;;;5072990;28;20111;-81
2023/08/26 04:28:16;;;;;;;4.68;2.75;;;;;;;;;;5060496;28;20041;-81
2023/08/26 04:30:42;;;;;;;8.07;2.40;;;;;;;;;;5061767;28;20021;-81
2023/08/26 04:33:07;;;;;;;4.82;2.70;;;;;;;;;;5070188;28;20028;-81
2023/08/26 04:35:33;;;;;;;5.10;2.22;;;;;;;;;;5072288;28;20085;-81
2023/08/26 04:38:00;;;;;;;4.72;2.90;;;;;;;;;;5082750;28;20044;-81
2023/08/26 04:40:25;;;;;;;5.18;2.80;;;;;;;;;;5090586;28;20036;-81
2023/08/26 04:42:53;;;;;;;3.40;2.55;;;;;;;;;;5077622;28;20232;-80
2023/08/26 04:45:19;;;;;;;4.60;2.40;;;;;;;;;;5040978;28;20070;-82
2023/08/26 04:47:44;;;;;;;4.47;2.70;;;;;;;;;;5062914;28;20016;-82
2023/08/26 04:50:11;;;;;;;2.63;2.40;;;;;;;;;;5071048;28;20035;-82
2023/08/26 04:52:38;;;;;;;3.40;2.95;;;;;;;;;;5066919;28;20020;-82
2023/08/26 04:55:04;;;;;;;4.07;2.20;;;;;;;;;;5075582;28;20077;-82
2023/08/26 04:57:29;;;;;;;4.32;2.30;;;;;;;;;;5075562;28;20032;-81
2023/08/26 04:59:54;;;;;;;3.33;2.50;;;;;;;;;;5065544;28;20024;-80
2023/08/26 05:02:20;;;;;;;2.60;2.30;;;;;;;;;;5065061;28;20105;-81
2023/08/26 05:04:45;;;;;;;3.75;2.40;;;;;;;;;;5068853;28;20022;-83
2023/08/26 05:07:10;;;;;;;3.38;2.40;;;;;;;;;;5074272;28;20032;-81
2023/08/26 05:09:36;;;;;;;3.55;2.30;;;;;;;;;;5074895;28;20036;-82
2023/08/26 05:12:01;;;;;;;4.50;3.00;;;;;;;;;;5069903;28;20021;-83
2023/08/26 05:14:27;;;;;;;3.10;2.45;;;;;;;;;;5056338;28;20032;-81
2023/08/26 05:16:52;;;;;;;3.58;2.95;;;;;;;;;;5056194;28;20039;-81
2023/08/26 05:19:17;;;;;;;3.53;2.70;;;;;;;;;;5065789;28;20458;-81
2023/08/26 05:21:42;;;;;;;3.03;2.45;;;;;;;;;;5064279;28;20055;-83
2023/08/26 05:24:08;;;;;;;2.88;2.55;;;;;;;;;;5071567;28;20383;-83
2023/08/26 05:26:33;;;;;;;3.60;2.83;;;;;;;;;;5073223;28;20024;-83
2023/08/26 05:28:59;;;;;;;4.85;2.50;;;;;;;;;;5067008;28;20032;-83
2023/08/26 05:31:24;;;;;;;3.63;2.72;;;;;;;;;;5067182;28;20100;-83
2023/08/26 05:33:50;;;;;;;3.80;2.40;;;;;;;;;;5075544;28;20029;-82
2023/08/26 05:36:15;;;;;;;3.58;2.20;;;;;;;;;;5072061;28;20036;-82
2023/08/26 05:38:41;;;;;;;3.35;2.28;;;;;;;;;;5068770;28;20056;-82
2023/08/26 05:41:06;;;;;;;5.30;2.40;;;;;;;;;;5052300;28;20102;-82
2023/08/26 05:43:31;;;;;;;3.28;2.55;;;;;;;;;;5062112;28;20024;-81
2023/08/26 05:45:57;;;;;;;3.20;2.75;;;;;;;;;;5074124;28;20025;-81
2023/08/26 05:48:22;;;;;;;3.22;2.40;;;;;;;;;;5070489;28;20020;-82
2023/08/26 05:50:47;;;;;;;3.17;2.53;;;;;;;;;;5058268;28;20173;-82
2023/08/26 05:53:13;;;;;;;4.95;3.17;;;;;;;;;;5056725;22;20045;-81
2023/08/26 05:55:40;;;;;;;4.70;3.08;;;;;;;;;;5045778;28;20463;-81
2023/08/26 05:58:06;;;;;;;5.88;2.72;;;;;;;;;;5039238;28;20428;-81
2023/08/26 06:00:31;;;;;;;3.88;2.88;;;;;;;;;;5041017;28;20071;-80
2023/08/26 06:02:56;;;;;;;3.67;2.45;;;;;;;;;;5033337;28;20092;-80
2023/08/26 06:05:22;;;;;;;3.47;2.65;;;;;;;;;;5031995;28;20056;-80
2023/08/26 06:07:48;;;;;;;3.20;2.38;;;;;;;;;;5032015;28;20064;-80
2023/08/26 06:10:13;;;;;;;4.60;3.22;;;;;;;;;;5022760;28;20030;-81
2023/08/26 06:12:39;;;;;;;5.63;2.72;;;;;;;;;;5025201;28;20516;-80
2023/08/26 06:15:05;;;;;;;4.32;2.92;;;;;;;;;;5032256;28;20032;-81
2023/08/26 06:17:30;;;;;;;4.22;3.00;;;;;;;;;;5022563;28;20018;-80
2023/08/26 06:19:55;;;;;;;3.78;2.92;;;;;;;;;;5024076;28;20029;-80
2023/08/26 06:22:21;;;;;;;4.45;2.60;;;;;;;;;;5026117;28;20030;-80
2023/08/26 06:24:46;;;;;;;3.00;2.50;;;;;;;;;;5012635;28;20031;-80
2023/08/26 06:27:11;;;;;;;6.22;3.58;;;;;;;;;;5023932;28;20026;-80
2023/08/26 06:29:43;;;;;;;3.08;2.55;;;;;;;;;;5026060;28;20075;-80
2023/08/26 06:32:08;;;;;;;;;;;;;;;;;;5025848;28;20033;-80
2023/08/26 06:34:34;;;;;;;3.22;2.42;;;;;;;;;;5032691;28;19931;-82
2023/08/26 06:36:59;;;;;;;5.47;2.80;;;;;;;;;;5032089;28;20031;-80
2023/08/26 06:39:24;;;;;;;2.80;2.40;;;;;;;;;;5033871;28;20021;-80
2023/08/26 06:41:50;;;;;;;3.13;2.42;;;;;;;;;;5017412;28;20034;-82
2023/08/26 06:44:15;;;;;;;5.22;2.70;;;;;;;;;;5033167;28;20081;-83
2023/08/26 06:46:40;;;;;;;3.63;2.58;;;;;;;;;;5056453;28;20081;-82
2023/08/26 06:49:07;;;;;;;3.38;2.42;;;;;;;;;;5056411;28;20029;-81
2023/08/26 06:51:32;;;;;;;2.67;2.25;;;;;;;;;;5042302;28;20648;-82
2023/08/26 06:53:57;;;;;;;4.68;2.78;;;;;;;;;;5015298;28;20034;-82
2023/08/26 06:56:23;;;;;;;3.38;2.25;;;;;;;;;;5025387;28;20052;-82
2023/08/26 06:58:48;;;;;;;4.43;2.33;;;;;;;;;;5036038;28;20132;-81
2023/08/26 07:01:14;;;;;;;3.17;2.70;;;;;;;;;;5027418;28;20087;-82
2023/08/26 07:03:39;;;;;;;2.75;2.10;;;;;;;;;;5040056;28;20083;-82
2023/08/26 07:06:04;;;;;;;4.45;2.50;;;;;;;;;;5024527;28;20029;-81
2023/08/26 07:08:29;;;;;;;3.78;2.53;;;;;;;;;;5033987;28;20026;-80
2023/08/26 07:10:55;;;;;;;4.55;2.63;;;;;;;;;;5032448;28;20029;-81
2023/08/26 07:13:20;;;;;;;2.45;1.95;;;;;;;;;;5031422;28;20075;-81
2023/08/26 07:15:45;;;;;;;2.85;2.50;;;;;;;;;;5036982;28;20106;-82
2023/08/26 07:18:11;;;;;;;5.35;2.35;;;;;;;;;;5036649;28;20563;-81
2023/08/26 07:20:36;;;;;;;2.17;1.98;;;;;;;;;;5033983;28;20021;-82
2023/08/26 07:23:02;;;;;;;4.07;2.10;;;;;;;;;;5036739;28;20018;-82
2023/08/26 07:25:31;;;;;;;2.00;1.80;;;;;;;;;;5024035;28;20055;-82
2023/08/26 07:27:57;;;;;;;3.50;2.20;;;;;;;;;;5033368;28;20101;-82
2023/08/26 07:30:22;;;;;;;2.92;2.47;;;;;;;;;;5036291;28;20057;-82
2023/08/26 07:32:47;;;;;;;4.68;2.40;;;;;;;;;;5035379;28;20053;-82
2023/08/26 07:35:13;;;;;;;2.97;2.33;;;;;;;;;;5032472;28;20030;-82
2023/08/26 07:37:38;;;;;;;3.80;2.25;;;;;;;;;;5026207;28;20391;-82
2023/08/26 07:40:07;;;;;;;5.82;2.33;;;;;;;;;;5035420;28;20617;-82
2023/08/26 07:42:36;;;;;;;2.80;2.00;;;;;;;;;;5020624;28;20103;-84
2023/08/26 07:45:02;;;;;;;2.45;1.90;;;;;;;;;;5021509;28;20442;-82
2023/08/26 07:47:27;;;;;;;2.28;1.85;;;;;;;;;;4998092;28;20232;-82
2023/08/26 07:49:53;;;;;;;3.25;2.28;;;;;;;;;;5003477;28;20061;-82
2023/08/26 07:52:19;;;;;;;2.88;2.20;;;;;;;;;;5010926;28;20018;-83
2023/08/26 07:54:44;;;;;;;3.25;1.83;;;;;;;;;;5016325;28;20018;-84
2023/08/26 07:57:10;;;;;;;2.75;1.83;;;;;;;;;;5007292;28;20368;-82
2023/08/26 07:59:35;;;;;;;4.97;2.00;;;;;;;;;;5032608;28;20025;-81
2023/08/26 08:02:00;;;;;;;4.22;1.90;;;;;;;;;;5022023;28;20125;-81
2023/08/26 08:04:26;;;;;;;2.85;1.80;;;;;;;;;;5024457;28;20117;-82
2023/08/26 08:06:51;;;;;;;3.72;2.33;;;;;;;;;;5034931;28;20031;-81
2023/08/26 08:09:17;;;;;;;2.95;1.90;;;;;;;;;;5041544;28;20294;-81
2023/08/26 08:11:42;;;;;;;3.10;2.20;;;;;;;;;;5035603;28;20462;-80
2023/08/26 08:14:07;;;;;;;4.68;1.90;;;;;;;;;;5029809;28;20120;-81
2023/08/26 08:16:33;;;;;;;2.45;2.15;;;;;;;;;;5035389;28;20022;-81
2023/08/26 08:18:58;;;;;;;2.95;2.30;;;;;;;;;;5035437;28;20026;-79
2023/08/26 08:21:23;;;;;;;2.40;2.20;;;;;;;;;;5033682;28;20025;-81
2023/08/26 08:23:49;;;;;;;5.55;2.55;;;;;;;;;;5031763;28;20029;-80
2023/08/26 08:26:16;;;;;;;2.80;2.15;;;;;;;;;;5032432;28;20108;-81
2023/08/26 08:28:41;;;;;;;3.70;2.13;;;;;;;;;;5036462;28;20471;-82
2023/08/26 08:31:06;;;;;;;2.58;2.38;;;;;;;;;;5031633;28;20049;-83
2023/08/26 08:33:33;;;;;;;2.88;2.50;;;;;;;;;;5032196;28;20025;-82
2023/08/26 08:36:00;;;;;;;3.83;2.53;;;;;;;;;;5019772;28;20029;-82
2023/08/26 08:38:26;;;;;;;3.10;2.80;;;;;;;;;;5023414;28;20029;-82
2023/08/26 08:40:51;;;;;;;5.35;2.45;;;;;;;;;;5031226;28;20104;-81
2023/08/26 08:43:20;;;;;;;3.15;2.42;;;;;;;;;;5036730;28;20087;-82
2023/08/26 08:45:46;;;;;;;9.02;2.30;;;;;;;;;;5031352;28;20021;-85
2023/08/26 08:48:12;;;;;;;2.47;2.28;;;;;;;;;;5029648;28;20125;-81
2023/08/26 08:50:38;;;;;;;3.05;2.40;;;;;;;;;;5010328;28;20079;-81
2023/08/26 08:53:03;;;;;;;2.78;2.38;;;;;;;;;;5029644;28;20022;-82
2023/08/26 08:55:29;;;;;;;4.07;2.50;;;;;;;;;;5004195;28;20014;-81
2023/08/26 08:57:56;;;;;;;3.95;2.40;;;;;;;;;;5018446;28;20028;-81
2023/08/26 09:00:23;;;;;;;2.80;2.20;;;;;;;;;;5016155;28;20034;-81
2023/08/26 09:02:51;;;;;;;3.03;2.38;;;;;;;;;;5007152;28;20033;-81
2023/08/26 09:05:17;;;;;;;3.95;2.70;;;;;;;;;;5030186;28;20021;-81
2023/08/26 09:07:43;;;;;;;3.53;2.33;;;;;;;;;;5033689;28;20032;-81
2023/08/26 09:10:12;;;;;;;3.03;1.90;;;;;;;;;;5032117;28;20475;-82
2023/08/26 09:12:38;;;;;;;3.80;2.47;;;;;;;;;;5017172;28;20337;-82
2023/08/26 09:15:05;;;;;;;4.65;2.65;;;;;;;;;;5032427;28;20041;-81
2023/08/26 09:17:31;;;;;;;3.72;1.95;;;;;;;;;;5030288;28;20081;-82
2023/08/26 09:19:59;;;;;;;4.38;2.40;;;;;;;;;;5034170;28;20085;-80
2023/08/26 09:22:32;;;;;;;5.30;2.25;;;;;;;;;;5032894;28;20040;-82
2023/08/26 09:25:02;;;;;;;3.13;2.03;;;;;;;;;;5034457;28;20033;-82
2023/08/26 09:27:28;;;;;;;1.98;1.70;;;;;;;;;;5025007;28;20025;-81
2023/08/26 09:29:54;;;;;;;4.30;2.65;;;;;;;;;;5031374;28;20489;-81
2023/08/26 09:32:39;;;;;;;2.72;2.00;;;;;;;;;;5010661;28;20030;-82
2023/08/26 09:35:13;;;;;;;2.53;1.65;;;;;;;;;;5023957;28;20040;-81
2023/08/26 09:37:40;;;;;;;3.80;2.25;;;;;;;;;;5031956;28;20026;-82
2023/08/26 09:40:06;;;;;;;2.92;2.10;;;;;;;;;;5014963;28;20026;-81
2023/08/26 09:42:33;;;;;;;4.10;2.13;;;;;;;;;;5021378;28;20041;-81
2023/08/26 09:44:58;;;;;;;2.22;1.80;;;;;;;;;;5025930;28;20032;-81
2023/08/26 09:47:28;;;;;;;4.85;2.10;;;;;;;;;;5016955;28;20038;-82
2023/08/26 09:49:53;;;;;;;3.15;2.25;;;;;;;;;;5023102;28;20036;-81
2023/08/26 09:52:19;;;;;;;2.10;1.90;;;;;;;;;;5019820;28;20081;-81
2023/08/26 09:54:46;;;;;;;3.05;2.10;;;;;;;;;;5024334;28;20467;-81
2023/08/26 09:57:11;;;;;;;3.80;1.90;;;;;;;;;;5017140;28;20084;-81
2023/08/26 09:59:37;;;;;;;4.10;2.05;;;;;;;;;;5001575;28;20023;-81
2023/08/26 10:02:06;;;;;;;4.38;2.25;;;;;;;;;;5003239;28;20057;-81
2023/08/26 10:04:35;;;;;;;3.20;1.90;;;;;;;;;;5030025;28;20207;-81
2023/08/26 10:07:01;;;;;;;2.72;2.17;;;;;;;;;;5018316;28;20491;-81
2023/08/26 10:09:28;;;;;;;3.47;1.88;;;;;;;;;;5019520;28;20037;-81
2023/08/26 10:11:55;;;;;;;5.68;2.30;;;;;;;;;;5017868;28;20028;-82
2023/08/26 10:14:24;;;;;;;2.53;1.95;;;;;;;;;;5034540;28;20033;-81
2023/08/26 10:16:50;;;;;;;2.33;1.98;;;;;;;;;;5035270;28;20442;-81
2023/08/26 10:19:16;;;;;;;2.75;2.08;;;;;;;;;;5025161;28;20033;-81
2023/08/26 10:21:43;;;;;;;2.42;2.20;;;;;;;;;;5034221;28;20084;-82
2023/08/26 10:24:08;;;;;;;2.47;2.05;;;;;;;;;;5038231;28;20645;-82
2023/08/26 10:26:34;;;;;;;3.67;1.90;;;;;;;;;;5027262;28;20036;-82
2023/08/26 10:28:59;;;;;;;3.10;2.00;;;;;;;;;;5036778;28;20079;-82
2023/08/26 10:31:38;;;;;;;2.35;1.80;;;;;;;;;;5028916;28;20037;-82
2023/08/26 10:34:06;;;;;;;2.58;1.70;;;;;;;;;;5025468;28;20033;-81
2023/08/26 10:36:36;;;;;;;3.53;1.92;;;;;;;;;;5022531;28;20025;-80
2023/08/26 10:39:03;;;;;;;2.97;1.77;;;;;;;;;;5023553;28;20101;-81
2023/08/26 10:41:30;;;;;;;3.05;2.08;;;;;;;;;;5019129;28;20033;-82
2023/08/26 10:43:58;;;;;;;2.33;1.95;;;;;;;;;;5035534;28;20088;-82
2023/08/26 10:46:36;;;;;;;1.85;1.75;;;;;;;;;;5036693;28;20061;-81
2023/08/26 10:49:03;;;;;;;1.75;1.65;;;;;;;;;;5034708;28;20056;-82
2023/08/26 10:51:30;;;;;;;1.75;1.65;;;;;;;;;;5028713;28;20551;-82
2023/08/26 10:54:03;;;;;;;2.10;1.50;;;;;;;;;;5031988;28;20033;-81
2023/08/26 10:56:28;;;;;;;2.03;1.60;;;;;;;;;;5036368;28;20033;-82
2023/08/26 10:59:04;;;;;;;2.47;1.50;;;;;;;;;;5036384;28;20060;-82
2023/08/26 11:01:36;;;;;;;2.47;1.95;;;;;;;;;;5029820;28;20118;-82
2023/08/26 11:04:05;;;;;;;3.17;1.52;;;;;;;;;;5037307;28;20442;-82
2023/08/26 11:06:38;;;;;;;4.60;2.00;;;;;;;;;;5037730;28;20049;-82
2023/08/26 11:09:04;;;;;;;2.42;1.60;;;;;;;;;;5029614;28;20022;-81
2023/08/26 11:11:30;;;;;;;1.95;1.77;;;;;;;;;;5021819;28;20083;-82
2023/08/26 11:13:55;;;;;;;2.75;1.65;;;;;;;;;;5021894;28;20071;-81
2023/08/26 11:16:21;;;;;;;1.95;1.60;;;;;;;;;;5037274;28;20221;-80
2023/08/26 11:18:46;;;;;;;1.88;1.45;;;;;;;;;;5036642;28;20021;-82
2023/08/26 11:21:12;;;;;;;4.13;1.75;;;;;;;;;;5032529;28;20131;-83
2023/08/26 11:23:38;;;;;;;3.20;1.70;;;;;;;;;;5018465;28;20030;-81
2023/08/26 11:26:06;;;;;;;1.92;1.80;;;;;;;;;;5033114;28;20025;-81
2023/08/26 11:28:31;;;;;;;3.15;2.03;;;;;;;;;;5035756;28;20234;-81
2023/08/26 11:30:57;;;;;;;4.30;1.80;;;;;;;;;;5031298;28;20086;-81
2023/08/26 11:33:26;;;;;;;2.15;1.95;;;;;;;;;;5030626;28;20105;-81
2023/08/26 11:35:52;;;;;;;3.22;1.85;;;;;;;;;;5019376;28;20151;-81
2023/08/26 11:38:17;;;;;;;4.75;1.92;;;;;;;;;;5024749;28;20049;-81
2023/08/26 11:40:43;;;;;;;4.35;2.15;;;;;;;;;;5036144;28;20029;-82
2023/08/26 11:43:10;;;;;;;2.15;1.90;;;;;;;;;;5037272;28;20033;-81
2023/08/26 11:45:40;;;;;;;3.75;2.20;;;;;;;;;;5036409;28;20029;-81
2023/08/26 11:48:09;;;;;;;4.15;2.13;;;;;;;;;;5028705;28;20128;-82
2023/08/26 11:50:35;;;;;;;4.00;2.20;;;;;;;;;;5037891;28;20026;-82
2023/08/26 11:53:02;;;;;;;2.55;1.90;;;;;;;;;;5034567;28;20025;-82
2023/08/26 11:55:28;;;;;;;1.92;1.73;;;;;;;;;;5033326;28;20060;-82
2023/08/26 11:57:55;;;;;;;2.83;2.00;;;;;;;;;;5027666;28;20037;-82
2023/08/26 12:00:21;;;;;;;4.20;2.08;;;;;;;;;;5038017;28;20030;-82
2023/08/26 12:02:51;;;;;;;3.42;2.20;;;;;;;;;;5028576;28;20036;-82
2023/08/26 12:05:18;;;;;;;2.50;2.28;;;;;;;;;;5030595;28;20115;-82
2023/08/26 12:07:45;;;;;;;2.72;2.22;;;;;;;;;;5033742;28;20041;-82
2023/08/26 12:10:11;;;;;;;2.25;2.05;;;;;;;;;;5037548;28;20115;-82
2023/08/26 12:12:37;;;;;;;4.80;2.20;;;;;;;;;;5035141;28;20098;-82
2023/08/26 12:15:07;;;;;;;2.15;1.95;;;;;;;;;;5025937;28;20416;-81
2023/08/26 12:17:47;;;;;;;2.20;1.92;;;;;;;;;;5028014;28;20383;-82
2023/08/26 12:20:19;;;;;;;2.15;1.73;;;;;;;;;;5033269;28;20487;-82
2023/08/26 12:22:44;;;;;;;4.28;2.30;;;;;;;;;;5036713;28;20021;-82
2023/08/26 12:25:09;;;;;;;3.40;2.20;;;;;;;;;;5037313;28;20037;-82
2023/08/26 12:27:41;;;;;;;3.30;1.75;;;;;;;;;;5027244;28;20021;-82
2023/08/26 12:30:06;;;;;;;4.00;2.15;;;;;;;;;;5038148;28;20021;-84
2023/08/26 12:32:32;;;;;;;4.78;2.53;;;;;;;;;;5029746;28;20052;-83
2023/08/26 12:34:57;;;;;;;4.22;2.50;;;;;;;;;;5033945;28;20078;-83
2023/08/26 12:37:22;;;;;;;3.95;2.35;;;;;;;;;;5035744;28;20391;-83
2023/08/26 12:39:47;;;;;;;6.20;2.78;;;;;;;;;;5033964;28;20096;-82
2023/08/26 12:42:14;;;;;;;3.88;1.80;;;;;;;;;;5035638;28;20064;-81
2023/08/26 12:44:39;;;;;;;3.83;2.50;;;;;;;;;;5033633;28;20013;-82
2023/08/26 12:47:05;;;;;;;2.42;2.20;;;;;;;;;;5031785;28;20025;-82
2023/08/26 12:49:30;;;;;;;3.40;1.92;;;;;;;;;;5032564;28;20056;-81
2023/08/26 12:51:55;;;;;;;2.83;2.28;;;;;;;;;;5026503;28;20025;-81
2023/08/26 12:54:21;;;;;;;3.10;2.30;;;;;;;;;;5026905;28;20079;-82
2023/08/26 12:56:46;;;;;;;4.65;2.13;;;;;;;;;;5032145;28;20025;-81
2023/08/26 12:59:12;;;;;;;3.38;2.70;;;;;;;;;;5028007;28;20037;-81
2023/08/26 13:01:37;;;;;;;3.35;2.17;;;;;;;;;;5026106;28;20112;-82
2023/08/26 13:04:04;;;;;;;6.45;2.45;;;;;;;;;;5034507;28;20030;-82
2023/08/26 13:06:29;;;;;;;3.50;2.40;;;;;;;;;;5036174;28;20030;-81
2023/08/26 13:08:54;;;;;;;3.28;2.20;;;;;;;;;;5035409;28;20036;-83
2023/08/26 13:11:20;;;;;;;2.40;2.20;;;;;;;;;;5015268;28;20116;-82
2023/08/26 13:13:46;;;;;;;5.13;2.70;;;;;;;;;;5013300;28;20438;-83
2023/08/26 13:16:11;;;;;;;2.67;2.47;;;;;;;;;;5023912;28;20125;-81
2023/08/26 13:18:38;;;;;;;2.90;2.08;;;;;;;;;;5027096;28;20044;-80
2023/08/26 13:21:03;;;;;;;2.72;2.05;;;;;;;;;;5026515;28;20063;-82
2023/08/26 13:23:29;;;;;;;2.80;2.30;;;;;;;;;;5024628;28;20568;-80
2023/08/26 13:25:54;;;;;;;3.20;2.28;;;;;;;;;;5016873;28;20030;-81
2023/08/26 13:28:19;;;;;;;5.15;2.20;;;;;;;;;;5034787;28;20021;-82
2023/08/26 13:30:45;;;;;;;2.30;1.77;;;;;;;;;;5030740;28;20065;-82
2023/08/26 13:33:10;;;;;;;2.40;2.20;;;;;;;;;;5020746;28;20108;-82
2023/08/26 13:35:36;;;;;;;2.90;2.20;;;;;;;;;;5025458;28;20384;-83
2023/08/26 13:38:01;;;;;;;2.65;2.10;;;;;;;;;;5024941;28;20032;-81
2023/08/26 13:40:26;;;;;;;3.50;2.33;;;;;;;;;;5018358;28;20049;-84
2023/08/26 13:42:54;;;;;;;4.05;2.58;;;;;;;;;;5033881;28;20045;-81
2023/08/26 13:45:20;;;;;;;3.97;2.17;;;;;;;;;;5028746;28;20022;-82
2023/08/26 13:47:45;;;;;;;2.88;2.53;;;;;;;;;;5030417;28;20369;-82
2023/08/26 13:50:10;;;;;;;7.10;2.60;;;;;;;;;;5027126;28;20021;-82
2023/08/26 13:52:36;;;;;;;3.15;2.67;;;;;;;;;;5032856;28;20037;-80
2023/08/26 13:55:01;;;;;;;5.00;2.50;;;;;;;;;;5030396;28;20030;-81
2023/08/26 13:57:27;;;;;;;3.80;2.30;;;;;;;;;;5021688;28;20029;-79
2023/08/26 13:59:52;;;;;;;2.97;2.15;;;;;;;;;;5033259;28;20065;-78
2023/08/26 14:02:20;;;;;;;3.63;2.10;;;;;;;;;;5025622;28;20515;-80
2023/08/26 14:04:45;;;;;;;3.75;1.85;;;;;;;;;;5033265;28;20025;-80
2023/08/26 14:07:11;;;;;;;2.60;2.05;;;;;;;;;;5033891;28;20036;-81
2023/08/26 14:09:36;;;;;;;4.03;1.70;;;;;;;;;;5022159;28;20022;-81
2023/08/26 14:12:02;;;;;;;3.55;1.95;;;;;;;;;;5034638;28;20496;-80
2023/08/26 14:14:27;;;;;;;5.45;1.80;;;;;;;;;;5035408;28;20048;-80
2023/08/26 14:16:52;;;;;;;1.50;1.27;;;;;;;;;;5035407;28;20480;-79
2023/08/26 14:19:18;;;;;;;1.33;1.27;;;;;;;;;;5034591;28;20026;-79
2023/08/26 14:21:43;;;;;;;2.80;1.77;;;;;;;;;;5028334;28;20480;-84
2023/08/26 14:24:08;;;;;;;2.15;1.63;;;;;;;;;;5010201;28;20440;-84
2023/08/26 14:26:34;;;;;;;3.45;1.80;;;;;;;;;;5014371;28;20430;-82
2023/08/26 14:28:59;;;;;;;2.58;1.80;;;;;;;;;;5032502;28;20190;-83
2023/08/26 14:31:24;;;;;;;3.70;2.17;;;;;;;;;;5025006;28;20614;-79
2023/08/26 14:33:49;;;;;;;2.55;2.20;;;;;;;;;;5022765;28;20029;-80
2023/08/26 14:36:15;;;;;;;2.08;1.83;;;;;;;;;;5006242;28;20022;-80
2023/08/26 14:38:43;;;;;;;1.92;1.70;;;;;;;;;;5024754;28;20028;-80
2023/08/26 14:41:09;;;;;;;2.38;1.65;;;;;;;;;;5029347;28;20025;-80
2023/08/26 14:43:34;;;;;;;2.80;2.20;;;;;;;;;;5022759;28;20088;-79